sensor_id;sensor_type;location;lat;lon;timestamp;P1;durP1;ratioP1;P2;durP2;ratioP2
4452;SDS011;2239;48.152;11.584;2023-11-22T00:01:48;12.50;;;3.70;;
4452;SDS011;2239;48.152;11.584;2023-11-22T00:04:16;17.50;;;4.73;;
4452;SDS011;2239;48.152;11.584;2023-11-22T00:06:43;7.17;;;3.67;;
4452;SDS011;2239;48.152;11.584;2023-11-22T00:09:08;9.57;;;3.90;;
4452;SDS011;2239;48.152;11.584;2023-11-22T00:11:34;9.20;;;3.90;;
4452;SDS011;2239;48.152;11.584;2023-11-22T00:14:00;7.50;;;3.23;;
4452;SDS011;2239;48.152;11.584;2023-11-22T00:16:26;11.50;;;3.70;;
4452;SDS011;2239;48.152;11.584;2023-11-22T00:18:52;13.30;;;4.27;;
4452;SDS011;2239;48.152;11.584;2023-11-22T00:21:17;12.13;;;4.80;;
4452;SDS011;2239;48.152;11.584;2023-11-22T00:23:44;8.87;;;3.40;;
4452;SDS011;2239;48.152;11.584;2023-11-22T00:26:11;11.13;;;4.27;;
4452;SDS011;2239;48.152;11.584;2023-11-22T00:28:37;10.70;;;4.30;;
4452;SDS011;2239;48.152;11.584;2023-11-22T00:31:02;6.73;;;3.63;;
4452;SDS011;2239;48.152;11.584;2023-11-22T00:33:28;12.30;;;4.83;;
4452;SDS011;2239;48.152;11.584;2023-11-22T00:35:54;13.53;;;4.80;;
4452;SDS011;2239;48.152;11.584;2023-11-22T00:38:21;13.50;;;3.57;;
4452;SDS011;2239;48.152;11.584;2023-11-22T00:40:47;10.53;;;4.33;;
4452;SDS011;2239;48.152;11.584;2023-11-22T00:43:12;8.23;;;4.13;;
4452;SDS011;2239;48.152;11.584;2023-11-22T00:45:38;15.50;;;4.97;;
4452;SDS011;2239;48.152;11.584;2023-11-22T00:48:03;12.10;;;4.00;;
4452;SDS011;2239;48.152;11.584;2023-11-22T00:50:29;10.20;;;4.27;;
4452;SDS011;2239;48.152;11.584;2023-11-22T00:52:55;13.13;;;4.80;;
4452;SDS011;2239;48.152;11.584;2023-11-22T00:55:20;11.13;;;4.10;;
4452;SDS011;2239;48.152;11.584;2023-11-22T00:57:46;11.60;;;3.63;;
4452;SDS011;2239;48.152;11.584;2023-11-22T01:00:11;9.20;;;3.83;;
4452;SDS011;2239;48.152;11.584;2023-11-22T01:02:40;12.30;;;4.20;;
4452;SDS011;2239;48.152;11.584;2023-11-22T01:05:06;12.10;;;4.47;;
4452;SDS011;2239;48.152;11.584;2023-11-22T01:07:42;9.20;;;4.20;;
4452;SDS011;2239;48.152;11.584;2023-11-22T01:10:08;8.23;;;4.00;;
4452;SDS011;2239;48.152;11.584;2023-11-22T01:12:35;7.60;;;3.33;;
4452;SDS011;2239;48.152;11.584;2023-11-22T01:15:00;8.57;;;3.67;;
4452;SDS011;2239;48.152;11.584;2023-11-22T01:17:26;13.63;;;4.50;;
4452;SDS011;2239;48.152;11.584;2023-11-22T01:19:51;8.50;;;3.40;;
4452;SDS011;2239;48.152;11.584;2023-11-22T01:22:17;7.03;;;3.20;;
4452;SDS011;2239;48.152;11.584;2023-11-22T01:24:43;8.10;;;3.67;;
4452;SDS011;2239;48.152;11.584;2023-11-22T01:27:09;11.27;;;4.13;;
4452;SDS011;2239;48.152;11.584;2023-11-22T01:29:35;13.20;;;3.10;;
4452;SDS011;2239;48.152;11.584;2023-11-22T01:32:01;9.20;;;4.17;;
4452;SDS011;2239;48.152;11.584;2023-11-22T01:34:26;8.33;;;3.30;;
4452;SDS011;2239;48.152;11.584;2023-11-22T01:36:52;8.43;;;3.83;;
4452;SDS011;2239;48.152;11.584;2023-11-22T01:39:17;9.90;;;4.30;;
4452;SDS011;2239;48.152;11.584;2023-11-22T01:41:46;8.87;;;3.80;;
4452;SDS011;2239;48.152;11.584;2023-11-22T01:44:14;8.83;;;3.60;;
4452;SDS011;2239;48.152;11.584;2023-11-22T01:46:40;9.03;;;4.00;;
4452;SDS011;2239;48.152;11.584;2023-11-22T01:49:08;7.20;;;3.53;;
4452;SDS011;2239;48.152;11.584;2023-11-22T01:51:35;10.45;;;3.80;;
4452;SDS011;2239;48.152;11.584;2023-11-22T01:54:00;14.23;;;4.43;;
4452;SDS011;2239;48.152;11.584;2023-11-22T01:56:26;8.60;;;4.27;;
4452;SDS011;2239;48.152;11.584;2023-11-22T01:58:53;12.77;;;4.77;;
4452;SDS011;2239;48.152;11.584;2023-11-22T02:01:22;11.20;;;4.03;;
4452;SDS011;2239;48.152;11.584;2023-11-22T02:03:49;9.30;;;3.90;;
4452;SDS011;2239;48.152;11.584;2023-11-22T02:06:17;6.23;;;2.53;;
4452;SDS011;2239;48.152;11.584;2023-11-22T02:08:43;5.10;;;2.37;;
4452;SDS011;2239;48.152;11.584;2023-11-22T02:11:09;6.17;;;3.00;;
4452;SDS011;2239;48.152;11.584;2023-11-22T02:13:34;7.60;;;3.60;;
4452;SDS011;2239;48.152;11.584;2023-11-22T02:16:01;6.78;;;2.83;;
4452;SDS011;2239;48.152;11.584;2023-11-22T02:18:27;3.65;;;1.90;;
4452;SDS011;2239;48.152;11.584;2023-11-22T02:20:53;2.40;;;1.50;;
4452;SDS011;2239;48.152;11.584;2023-11-22T02:23:19;2.90;;;1.33;;
4452;SDS011;2239;48.152;11.584;2023-11-22T02:25:45;2.67;;;1.47;;
4452;SDS011;2239;48.152;11.584;2023-11-22T02:28:13;4.00;;;1.50;;
4452;SDS011;2239;48.152;11.584;2023-11-22T02:30:39;2.80;;;1.20;;
4452;SDS011;2239;48.152;11.584;2023-11-22T02:33:05;3.00;;;1.57;;
4452;SDS011;2239;48.152;11.584;2023-11-22T02:35:31;2.30;;;1.03;;
4452;SDS011;2239;48.152;11.584;2023-11-22T02:37:57;2.85;;;1.23;;
4452;SDS011;2239;48.152;11.584;2023-11-22T02:40:24;2.45;;;1.35;;
4452;SDS011;2239;48.152;11.584;2023-11-22T02:42:50;2.83;;;1.67;;
4452;SDS011;2239;48.152;11.584;2023-11-22T02:45:17;3.25;;;1.25;;
4452;SDS011;2239;48.152;11.584;2023-11-22T02:47:44;4.30;;;1.48;;
4452;SDS011;2239;48.152;11.584;2023-11-22T02:50:11;2.35;;;1.15;;
4452;SDS011;2239;48.152;11.584;2023-11-22T02:52:37;3.65;;;1.30;;
4452;SDS011;2239;48.152;11.584;2023-11-22T02:55:03;2.83;;;1.43;;
4452;SDS011;2239;48.152;11.584;2023-11-22T02:57:32;3.90;;;1.85;;
4452;SDS011;2239;48.152;11.584;2023-11-22T02:59:58;3.33;;;1.63;;
4452;SDS011;2239;48.152;11.584;2023-11-22T03:02:23;1.20;;;1.10;;
4452;SDS011;2239;48.152;11.584;2023-11-22T03:04:49;1.23;;;1.10;;
4452;SDS011;2239;48.152;11.584;2023-11-22T03:07:15;1.43;;;1.23;;
4452;SDS011;2239;48.152;11.584;2023-11-22T03:09:42;3.63;;;1.83;;
4452;SDS011;2239;48.152;11.584;2023-11-22T03:12:10;1.25;;;0.82;;
4452;SDS011;2239;48.152;11.584;2023-11-22T03:14:38;3.08;;;1.40;;
4452;SDS011;2239;48.152;11.584;2023-11-22T03:17:04;2.30;;;1.23;;
4452;SDS011;2239;48.152;11.584;2023-11-22T03:19:30;2.92;;;1.45;;
4452;SDS011;2239;48.152;11.584;2023-11-22T03:21:55;2.30;;;1.10;;
4452;SDS011;2239;48.152;11.584;2023-11-22T03:24:21;3.73;;;1.60;;
4452;SDS011;2239;48.152;11.584;2023-11-22T03:26:47;4.03;;;1.77;;
4452;SDS011;2239;48.152;11.584;2023-11-22T03:29:14;1.83;;;1.20;;
4452;SDS011;2239;48.152;11.584;2023-11-22T03:31:41;3.45;;;1.90;;
4452;SDS011;2239;48.152;11.584;2023-11-22T03:34:07;4.37;;;1.93;;
4452;SDS011;2239;48.152;11.584;2023-11-22T03:36:32;3.20;;;1.50;;
4452;SDS011;2239;48.152;11.584;2023-11-22T03:38:58;2.67;;;1.20;;
4452;SDS011;2239;48.152;11.584;2023-11-22T03:41:24;3.10;;;1.97;;
4452;SDS011;2239;48.152;11.584;2023-11-22T03:43:49;2.30;;;1.60;;
4452;SDS011;2239;48.152;11.584;2023-11-22T03:46:15;1.63;;;1.20;;
4452;SDS011;2239;48.152;11.584;2023-11-22T03:48:40;2.23;;;1.37;;
4452;SDS011;2239;48.152;11.584;2023-11-22T03:51:06;3.83;;;1.43;;
4452;SDS011;2239;48.152;11.584;2023-11-22T03:53:31;3.70;;;1.50;;
4452;SDS011;2239;48.152;11.584;2023-11-22T03:55:57;4.80;;;1.87;;
4452;SDS011;2239;48.152;11.584;2023-11-22T03:58:23;3.73;;;1.70;;
4452;SDS011;2239;48.152;11.584;2023-11-22T04:00:48;2.87;;;1.50;;
4452;SDS011;2239;48.152;11.584;2023-11-22T04:03:14;3.07;;;1.40;;
4452;SDS011;2239;48.152;11.584;2023-11-22T04:05:39;3.57;;;1.77;;
4452;SDS011;2239;48.152;11.584;2023-11-22T04:08:05;3.85;;;1.48;;
4452;SDS011;2239;48.152;11.584;2023-11-22T04:10:31;3.10;;;1.77;;
4452;SDS011;2239;48.152;11.584;2023-11-22T04:12:56;4.83;;;2.00;;
4452;SDS011;2239;48.152;11.584;2023-11-22T04:15:22;3.90;;;1.87;;
4452;SDS011;2239;48.152;11.584;2023-11-22T04:17:47;1.50;;;1.07;;
4452;SDS011;2239;48.152;11.584;2023-11-22T04:20:14;2.97;;;1.58;;
4452;SDS011;2239;48.152;11.584;2023-11-22T04:22:42;3.43;;;1.53;;
4452;SDS011;2239;48.152;11.584;2023-11-22T04:25:10;4.35;;;1.70;;
4452;SDS011;2239;48.152;11.584;2023-11-22T04:27:38;3.75;;;1.77;;
4452;SDS011;2239;48.152;11.584;2023-11-22T04:30:05;2.37;;;1.23;;
4452;SDS011;2239;48.152;11.584;2023-11-22T04:32:33;2.60;;;1.23;;
4452;SDS011;2239;48.152;11.584;2023-11-22T04:35:01;3.30;;;1.35;;
4452;SDS011;2239;48.152;11.584;2023-11-22T04:37:28;3.03;;;1.27;;
4452;SDS011;2239;48.152;11.584;2023-11-22T04:39:56;1.65;;;1.23;;
4452;SDS011;2239;48.152;11.584;2023-11-22T04:42:22;2.03;;;1.47;;
4452;SDS011;2239;48.152;11.584;2023-11-22T04:44:48;2.65;;;1.10;;
4452;SDS011;2239;48.152;11.584;2023-11-22T04:47:14;2.50;;;1.37;;
4452;SDS011;2239;48.152;11.584;2023-11-22T04:49:39;2.10;;;1.20;;
4452;SDS011;2239;48.152;11.584;2023-11-22T04:52:05;3.43;;;1.67;;
4452;SDS011;2239;48.152;11.584;2023-11-22T04:54:31;1.80;;;1.37;;
4452;SDS011;2239;48.152;11.584;2023-11-22T04:56:57;2.15;;;1.42;;
4452;SDS011;2239;48.152;11.584;2023-11-22T04:59:23;2.07;;;1.50;;
4452;SDS011;2239;48.152;11.584;2023-11-22T05:01:49;8.40;;;1.53;;
4452;SDS011;2239;48.152;11.584;2023-11-22T05:04:14;2.50;;;1.30;;
4452;SDS011;2239;48.152;11.584;2023-11-22T05:06:40;4.47;;;1.73;;
4452;SDS011;2239;48.152;11.584;2023-11-22T05:09:05;1.67;;;1.07;;
4452;SDS011;2239;48.152;11.584;2023-11-22T05:11:31;4.67;;;1.57;;
4452;SDS011;2239;48.152;11.584;2023-11-22T05:13:57;4.70;;;1.63;;
4452;SDS011;2239;48.152;11.584;2023-11-22T05:16:22;5.20;;;1.83;;
4452;SDS011;2239;48.152;11.584;2023-11-22T05:18:49;2.10;;;1.10;;
4452;SDS011;2239;48.152;11.584;2023-11-22T05:21:15;2.90;;;1.50;;
4452;SDS011;2239;48.152;11.584;2023-11-22T05:23:40;3.17;;;1.50;;
4452;SDS011;2239;48.152;11.584;2023-11-22T05:26:06;3.30;;;1.63;;
4452;SDS011;2239;48.152;11.584;2023-11-22T05:28:32;5.53;;;1.70;;
4452;SDS011;2239;48.152;11.584;2023-11-22T05:30:58;2.85;;;1.40;;
4452;SDS011;2239;48.152;11.584;2023-11-22T05:33:24;5.43;;;1.37;;
4452;SDS011;2239;48.152;11.584;2023-11-22T05:35:50;2.03;;;1.53;;
4452;SDS011;2239;48.152;11.584;2023-11-22T05:38:15;2.47;;;1.33;;
4452;SDS011;2239;48.152;11.584;2023-11-22T05:40:41;3.60;;;1.13;;
4452;SDS011;2239;48.152;11.584;2023-11-22T05:43:08;2.15;;;1.17;;
4452;SDS011;2239;48.152;11.584;2023-11-22T05:45:34;2.67;;;1.55;;
4452;SDS011;2239;48.152;11.584;2023-11-22T05:48:00;2.73;;;1.37;;
4452;SDS011;2239;48.152;11.584;2023-11-22T05:50:26;1.20;;;0.90;;
4452;SDS011;2239;48.152;11.584;2023-11-22T05:52:52;2.70;;;1.37;;
4452;SDS011;2239;48.152;11.584;2023-11-22T05:55:17;2.13;;;1.27;;
4452;SDS011;2239;48.152;11.584;2023-11-22T05:57:43;3.57;;;1.57;;
4452;SDS011;2239;48.152;11.584;2023-11-22T06:00:09;3.13;;;1.55;;
4452;SDS011;2239;48.152;11.584;2023-11-22T06:02:35;2.13;;;1.23;;
4452;SDS011;2239;48.152;11.584;2023-11-22T06:05:02;1.65;;;1.00;;
4452;SDS011;2239;48.152;11.584;2023-11-22T06:07:28;2.53;;;1.20;;
4452;SDS011;2239;48.152;11.584;2023-11-22T06:09:54;1.83;;;1.05;;
4452;SDS011;2239;48.152;11.584;2023-11-22T06:12:21;3.00;;;1.40;;
4452;SDS011;2239;48.152;11.584;2023-11-22T06:14:47;2.05;;;1.23;;
4452;SDS011;2239;48.152;11.584;2023-11-22T06:17:12;3.20;;;1.83;;
4452;SDS011;2239;48.152;11.584;2023-11-22T06:19:39;3.13;;;1.50;;
4452;SDS011;2239;48.152;11.584;2023-11-22T06:22:06;2.60;;;1.35;;
4452;SDS011;2239;48.152;11.584;2023-11-22T06:24:32;2.60;;;1.23;;
4452;SDS011;2239;48.152;11.584;2023-11-22T06:26:58;2.83;;;1.63;;
4452;SDS011;2239;48.152;11.584;2023-11-22T06:29:24;4.70;;;1.63;;
4452;SDS011;2239;48.152;11.584;2023-11-22T06:31:49;2.80;;;1.37;;
4452;SDS011;2239;48.152;11.584;2023-11-22T06:34:15;3.57;;;1.90;;
4452;SDS011;2239;48.152;11.584;2023-11-22T06:36:40;3.20;;;1.87;;
4452;SDS011;2239;48.152;11.584;2023-11-22T06:39:06;2.73;;;1.70;;
4452;SDS011;2239;48.152;11.584;2023-11-22T06:41:34;3.63;;;1.58;;
4452;SDS011;2239;48.152;11.584;2023-11-22T06:43:59;9.30;;;2.37;;
4452;SDS011;2239;48.152;11.584;2023-11-22T06:46:25;4.60;;;1.67;;
4452;SDS011;2239;48.152;11.584;2023-11-22T06:48:51;4.73;;;2.00;;
4452;SDS011;2239;48.152;11.584;2023-11-22T06:51:16;2.40;;;1.40;;
4452;SDS011;2239;48.152;11.584;2023-11-22T06:53:43;3.40;;;1.50;;
4452;SDS011;2239;48.152;11.584;2023-11-22T06:56:10;2.42;;;1.65;;
4452;SDS011;2239;48.152;11.584;2023-11-22T06:58:36;5.13;;;1.70;;
4452;SDS011;2239;48.152;11.584;2023-11-22T07:01:01;3.57;;;1.60;;
4452;SDS011;2239;48.152;11.584;2023-11-22T07:03:27;3.50;;;1.40;;
4452;SDS011;2239;48.152;11.584;2023-11-22T07:05:52;3.87;;;1.73;;
4452;SDS011;2239;48.152;11.584;2023-11-22T07:08:18;4.73;;;1.83;;
4452;SDS011;2239;48.152;11.584;2023-11-22T07:10:44;3.60;;;1.90;;
4452;SDS011;2239;48.152;11.584;2023-11-22T07:13:10;3.70;;;1.77;;
4452;SDS011;2239;48.152;11.584;2023-11-22T07:15:37;4.18;;;1.70;;
4452;SDS011;2239;48.152;11.584;2023-11-22T07:18:03;4.65;;;2.20;;
4452;SDS011;2239;48.152;11.584;2023-11-22T07:20:30;6.22;;;1.92;;
4452;SDS011;2239;48.152;11.584;2023-11-22T07:22:56;2.33;;;1.60;;
4452;SDS011;2239;48.152;11.584;2023-11-22T07:25:22;4.65;;;1.90;;
4452;SDS011;2239;48.152;11.584;2023-11-22T07:27:51;4.25;;;2.40;;
4452;SDS011;2239;48.152;11.584;2023-11-22T07:30:18;5.05;;;2.10;;
4452;SDS011;2239;48.152;11.584;2023-11-22T07:32:45;7.35;;;2.30;;
4452;SDS011;2239;48.152;11.584;2023-11-22T07:35:11;3.78;;;2.30;;
4452;SDS011;2239;48.152;11.584;2023-11-22T07:37:37;6.83;;;2.77;;
4452;SDS011;2239;48.152;11.584;2023-11-22T07:40:09;8.48;;;2.30;;
4452;SDS011;2239;48.152;11.584;2023-11-22T07:42:38;5.43;;;2.53;;
4452;SDS011;2239;48.152;11.584;2023-11-22T07:45:06;4.68;;;2.30;;
4452;SDS011;2239;48.152;11.584;2023-11-22T07:47:32;3.58;;;2.25;;
4452;SDS011;2239;48.152;11.584;2023-11-22T07:49:57;5.93;;;2.13;;
4452;SDS011;2239;48.152;11.584;2023-11-22T07:52:23;5.70;;;2.63;;
4452;SDS011;2239;48.152;11.584;2023-11-22T07:54:57;5.88;;;2.85;;
4452;SDS011;2239;48.152;11.584;2023-11-22T07:57:24;3.80;;;2.55;;
4452;SDS011;2239;48.152;11.584;2023-11-22T07:59:50;6.50;;;2.35;;
4452;SDS011;2239;48.152;11.584;2023-11-22T08:02:19;6.85;;;2.47;;
4452;SDS011;2239;48.152;11.584;2023-11-22T08:04:45;5.67;;;2.53;;
4452;SDS011;2239;48.152;11.584;2023-11-22T08:07:11;5.30;;;2.85;;
4452;SDS011;2239;48.152;11.584;2023-11-22T08:09:39;5.88;;;2.60;;
4452;SDS011;2239;48.152;11.584;2023-11-22T08:12:06;7.35;;;2.60;;
4452;SDS011;2239;48.152;11.584;2023-11-22T08:14:32;8.40;;;3.03;;
4452;SDS011;2239;48.152;11.584;2023-11-22T08:16:58;6.37;;;2.60;;
4452;SDS011;2239;48.152;11.584;2023-11-22T08:19:24;6.40;;;2.83;;
4452;SDS011;2239;48.152;11.584;2023-11-22T08:21:49;6.23;;;3.47;;
4452;SDS011;2239;48.152;11.584;2023-11-22T08:24:16;6.05;;;2.83;;
4452;SDS011;2239;48.152;11.584;2023-11-22T08:26:42;4.90;;;2.88;;
4452;SDS011;2239;48.152;11.584;2023-11-22T08:29:07;4.90;;;2.40;;
4452;SDS011;2239;48.152;11.584;2023-11-22T08:31:33;5.47;;;2.57;;
4452;SDS011;2239;48.152;11.584;2023-11-22T08:34:01;4.60;;;2.63;;
4452;SDS011;2239;48.152;11.584;2023-11-22T08:36:29;8.25;;;3.10;;
4452;SDS011;2239;48.152;11.584;2023-11-22T08:38:55;6.68;;;2.50;;
4452;SDS011;2239;48.152;11.584;2023-11-22T08:41:23;7.55;;;3.10;;
4452;SDS011;2239;48.152;11.584;2023-11-22T08:43:48;6.50;;;3.20;;
4452;SDS011;2239;48.152;11.584;2023-11-22T08:46:14;8.87;;;3.07;;
4452;SDS011;2239;48.152;11.584;2023-11-22T08:48:40;4.87;;;2.57;;
4452;SDS011;2239;48.152;11.584;2023-11-22T08:51:06;4.95;;;2.10;;
4452;SDS011;2239;48.152;11.584;2023-11-22T08:53:32;9.00;;;3.05;;
4452;SDS011;2239;48.152;11.584;2023-11-22T08:55:58;9.07;;;2.90;;
4452;SDS011;2239;48.152;11.584;2023-11-22T08:58:24;5.20;;;2.40;;
4452;SDS011;2239;48.152;11.584;2023-11-22T09:00:49;5.80;;;2.30;;
4452;SDS011;2239;48.152;11.584;2023-11-22T09:03:15;7.57;;;2.50;;
4452;SDS011;2239;48.152;11.584;2023-11-22T09:05:45;4.70;;;2.15;;
4452;SDS011;2239;48.152;11.584;2023-11-22T09:08:11;5.95;;;2.58;;
4452;SDS011;2239;48.152;11.584;2023-11-22T09:10:40;6.88;;;2.85;;
4452;SDS011;2239;48.152;11.584;2023-11-22T09:13:07;3.47;;;2.45;;
4452;SDS011;2239;48.152;11.584;2023-11-22T09:15:33;10.05;;;3.03;;
4452;SDS011;2239;48.152;11.584;2023-11-22T09:18:00;6.15;;;2.30;;
4452;SDS011;2239;48.152;11.584;2023-11-22T09:20:26;6.53;;;2.50;;
4452;SDS011;2239;48.152;11.584;2023-11-22T09:22:52;5.40;;;3.00;;
4452;SDS011;2239;48.152;11.584;2023-11-22T09:27:46;5.93;;;2.78;;
4452;SDS011;2239;48.152;11.584;2023-11-22T09:30:16;5.78;;;3.13;;
4452;SDS011;2239;48.152;11.584;2023-11-22T09:33:00;5.80;;;2.70;;
4452;SDS011;2239;48.152;11.584;2023-11-22T09:35:26;4.93;;;2.40;;
4452;SDS011;2239;48.152;11.584;2023-11-22T09:37:54;7.18;;;2.90;;
4452;SDS011;2239;48.152;11.584;2023-11-22T09:40:21;5.65;;;2.88;;
4452;SDS011;2239;48.152;11.584;2023-11-22T09:42:52;7.07;;;2.50;;
4452;SDS011;2239;48.152;11.584;2023-11-22T09:45:18;6.80;;;2.00;;
4452;SDS011;2239;48.152;11.584;2023-11-22T09:47:45;4.65;;;2.13;;
4452;SDS011;2239;48.152;11.584;2023-11-22T09:50:17;6.05;;;2.42;;
4452;SDS011;2239;48.152;11.584;2023-11-22T09:52:50;5.78;;;2.20;;
4452;SDS011;2239;48.152;11.584;2023-11-22T09:55:18;4.15;;;2.35;;
4452;SDS011;2239;48.152;11.584;2023-11-22T09:57:45;3.92;;;1.95;;
4452;SDS011;2239;48.152;11.584;2023-11-22T10:00:11;7.83;;;2.70;;
4452;SDS011;2239;48.152;11.584;2023-11-22T10:02:41;5.80;;;2.30;;
4452;SDS011;2239;48.152;11.584;2023-11-22T10:05:07;5.90;;;2.57;;
4452;SDS011;2239;48.152;11.584;2023-11-22T10:07:36;4.05;;;2.17;;
4452;SDS011;2239;48.152;11.584;2023-11-22T10:10:03;2.47;;;1.75;;
4452;SDS011;2239;48.152;11.584;2023-11-22T10:12:31;2.92;;;1.85;;
4452;SDS011;2239;48.152;11.584;2023-11-22T10:15:17;4.88;;;1.88;;
4452;SDS011;2239;48.152;11.584;2023-11-22T10:17:55;6.10;;;2.63;;
4452;SDS011;2239;48.152;11.584;2023-11-22T10:20:25;4.57;;;2.10;;
4452;SDS011;2239;48.152;11.584;2023-11-22T10:23:08;5.20;;;2.33;;
4452;SDS011;2239;48.152;11.584;2023-11-22T10:25:35;4.60;;;2.22;;
4452;SDS011;2239;48.152;11.584;2023-11-22T10:28:01;4.45;;;2.20;;
4452;SDS011;2239;48.152;11.584;2023-11-22T10:30:27;6.80;;;2.27;;
4452;SDS011;2239;48.152;11.584;2023-11-22T10:32:53;7.22;;;2.03;;
4452;SDS011;2239;48.152;11.584;2023-11-22T10:35:20;6.32;;;2.40;;
4452;SDS011;2239;48.152;11.584;2023-11-22T10:37:47;4.18;;;1.70;;
4452;SDS011;2239;48.152;11.584;2023-11-22T10:40:16;4.80;;;2.55;;
4452;SDS011;2239;48.152;11.584;2023-11-22T10:42:47;5.00;;;2.10;;
4452;SDS011;2239;48.152;11.584;2023-11-22T10:45:17;6.53;;;2.50;;
4452;SDS011;2239;48.152;11.584;2023-11-22T10:47:43;6.20;;;2.60;;
4452;SDS011;2239;48.152;11.584;2023-11-22T10:50:10;4.03;;;2.50;;
4452;SDS011;2239;48.152;11.584;2023-11-22T10:52:37;4.55;;;2.05;;
4452;SDS011;2239;48.152;11.584;2023-11-22T10:55:07;4.15;;;1.92;;
4452;SDS011;2239;48.152;11.584;2023-11-22T10:57:39;3.00;;;2.30;;
4452;SDS011;2239;48.152;11.584;2023-11-22T11:00:09;3.00;;;1.60;;
4452;SDS011;2239;48.152;11.584;2023-11-22T11:02:40;5.40;;;2.42;;
4452;SDS011;2239;48.152;11.584;2023-11-22T11:05:16;6.60;;;2.70;;
4452;SDS011;2239;48.152;11.584;2023-11-22T11:08:06;4.03;;;2.00;;
4452;SDS011;2239;48.152;11.584;2023-11-22T11:10:42;2.60;;;2.00;;
4452;SDS011;2239;48.152;11.584;2023-11-22T11:13:10;5.55;;;2.20;;
4452;SDS011;2239;48.152;11.584;2023-11-22T11:15:38;5.22;;;2.28;;
4452;SDS011;2239;48.152;11.584;2023-11-22T11:18:06;10.77;;;2.55;;
4452;SDS011;2239;48.152;11.584;2023-11-22T11:20:55;4.68;;;2.20;;
4452;SDS011;2239;48.152;11.584;2023-11-22T11:23:22;3.47;;;2.22;;
4452;SDS011;2239;48.152;11.584;2023-11-22T11:25:50;9.90;;;2.53;;
4452;SDS011;2239;48.152;11.584;2023-11-22T11:28:20;4.93;;;2.20;;
4452;SDS011;2239;48.152;11.584;2023-11-22T11:30:49;5.18;;;2.60;;
4452;SDS011;2239;48.152;11.584;2023-11-22T11:33:19;6.38;;;2.40;;
4452;SDS011;2239;48.152;11.584;2023-11-22T11:35:51;6.00;;;2.70;;
4452;SDS011;2239;48.152;11.584;2023-11-22T11:38:20;6.90;;;2.47;;
4452;SDS011;2239;48.152;11.584;2023-11-22T11:40:47;3.22;;;1.83;;
4452;SDS011;2239;48.152;11.584;2023-11-22T11:43:13;7.82;;;3.22;;
4452;SDS011;2239;48.152;11.584;2023-11-22T11:45:39;9.20;;;3.17;;
4452;SDS011;2239;48.152;11.584;2023-11-22T11:48:15;4.70;;;2.35;;
4452;SDS011;2239;48.152;11.584;2023-11-22T11:50:42;4.45;;;2.30;;
4452;SDS011;2239;48.152;11.584;2023-11-22T11:53:08;6.30;;;2.60;;
4452;SDS011;2239;48.152;11.584;2023-11-22T11:55:35;5.13;;;2.72;;
4452;SDS011;2239;48.152;11.584;2023-11-22T11:58:07;5.78;;;2.63;;
4452;SDS011;2239;48.152;11.584;2023-11-22T12:00:34;3.65;;;2.35;;
4452;SDS011;2239;48.152;11.584;2023-11-22T12:03:00;3.83;;;2.08;;
4452;SDS011;2239;48.152;11.584;2023-11-22T12:05:28;4.55;;;2.30;;
4452;SDS011;2239;48.152;11.584;2023-11-22T12:07:54;2.87;;;1.60;;
4452;SDS011;2239;48.152;11.584;2023-11-22T12:10:20;6.40;;;2.53;;
4452;SDS011;2239;48.152;11.584;2023-11-22T12:12:49;4.35;;;2.58;;
4452;SDS011;2239;48.152;11.584;2023-11-22T12:15:14;5.60;;;2.33;;
4452;SDS011;2239;48.152;11.584;2023-11-22T12:17:40;6.53;;;2.60;;
4452;SDS011;2239;48.152;11.584;2023-11-22T12:20:15;5.10;;;2.43;;
4452;SDS011;2239;48.152;11.584;2023-11-22T12:22:43;5.85;;;2.30;;
4452;SDS011;2239;48.152;11.584;2023-11-22T12:25:10;4.55;;;2.38;;
4452;SDS011;2239;48.152;11.584;2023-11-22T12:27:44;4.95;;;2.30;;
4452;SDS011;2239;48.152;11.584;2023-11-22T12:30:29;5.60;;;2.40;;
4452;SDS011;2239;48.152;11.584;2023-11-22T12:33:02;4.35;;;2.17;;
4452;SDS011;2239;48.152;11.584;2023-11-22T12:35:34;5.00;;;2.22;;
4452;SDS011;2239;48.152;11.584;2023-11-22T12:38:01;6.05;;;2.65;;
4452;SDS011;2239;48.152;11.584;2023-11-22T12:40:28;4.38;;;2.38;;
4452;SDS011;2239;48.152;11.584;2023-11-22T12:42:56;4.05;;;2.20;;
4452;SDS011;2239;48.152;11.584;2023-11-22T12:45:23;5.07;;;2.40;;
4452;SDS011;2239;48.152;11.584;2023-11-22T12:47:52;4.05;;;2.28;;
4452;SDS011;2239;48.152;11.584;2023-11-22T12:50:36;5.20;;;2.47;;
4452;SDS011;2239;48.152;11.584;2023-11-22T12:53:22;4.97;;;2.28;;
4452;SDS011;2239;48.152;11.584;2023-11-22T12:55:50;4.93;;;2.45;;
4452;SDS011;2239;48.152;11.584;2023-11-22T12:58:20;5.00;;;2.30;;
4452;SDS011;2239;48.152;11.584;2023-11-22T13:00:50;6.72;;;2.90;;
4452;SDS011;2239;48.152;11.584;2023-11-22T13:03:22;4.90;;;2.20;;
4452;SDS011;2239;48.152;11.584;2023-11-22T13:05:52;6.07;;;2.40;;
4452;SDS011;2239;48.152;11.584;2023-11-22T13:08:18;5.10;;;1.83;;
4452;SDS011;2239;48.152;11.584;2023-11-22T13:10:48;3.95;;;1.73;;
4452;SDS011;2239;48.152;11.584;2023-11-22T13:13:23;4.75;;;2.50;;
4452;SDS011;2239;48.152;11.584;2023-11-22T13:15:50;4.53;;;2.20;;
4452;SDS011;2239;48.152;11.584;2023-11-22T13:18:17;6.32;;;2.30;;
4452;SDS011;2239;48.152;11.584;2023-11-22T13:20:43;5.97;;;2.28;;
4452;SDS011;2239;48.152;11.584;2023-11-22T13:23:09;3.70;;;2.05;;
4452;SDS011;2239;48.152;11.584;2023-11-22T13:25:35;4.63;;;2.28;;
4452;SDS011;2239;48.152;11.584;2023-11-22T13:28:01;4.53;;;2.20;;
4452;SDS011;2239;48.152;11.584;2023-11-22T13:30:27;4.10;;;2.10;;
4452;SDS011;2239;48.152;11.584;2023-11-22T13:32:53;4.20;;;1.90;;
4452;SDS011;2239;48.152;11.584;2023-11-22T13:35:26;5.15;;;1.90;;
4452;SDS011;2239;48.152;11.584;2023-11-22T13:37:56;5.03;;;1.90;;
4452;SDS011;2239;48.152;11.584;2023-11-22T13:40:26;4.25;;;2.30;;
4452;SDS011;2239;48.152;11.584;2023-11-22T13:42:55;3.15;;;1.75;;
4452;SDS011;2239;48.152;11.584;2023-11-22T13:45:22;4.70;;;2.13;;
4452;SDS011;2239;48.152;11.584;2023-11-22T13:47:48;5.23;;;2.73;;
4452;SDS011;2239;48.152;11.584;2023-11-22T13:50:25;3.05;;;1.65;;
4452;SDS011;2239;48.152;11.584;2023-11-22T13:52:52;5.85;;;2.38;;
4452;SDS011;2239;48.152;11.584;2023-11-22T13:55:18;2.63;;;1.73;;
4452;SDS011;2239;48.152;11.584;2023-11-22T13:57:48;4.63;;;2.53;;
4452;SDS011;2239;48.152;11.584;2023-11-22T14:00:18;6.85;;;2.28;;
4452;SDS011;2239;48.152;11.584;2023-11-22T14:02:45;6.68;;;2.15;;
4452;SDS011;2239;48.152;11.584;2023-11-22T14:05:11;6.03;;;2.40;;
4452;SDS011;2239;48.152;11.584;2023-11-22T14:07:37;4.37;;;2.30;;
4452;SDS011;2239;48.152;11.584;2023-11-22T14:10:03;3.17;;;1.95;;
4452;SDS011;2239;48.152;11.584;2023-11-22T14:12:31;9.20;;;2.65;;
4452;SDS011;2239;48.152;11.584;2023-11-22T14:14:57;4.30;;;2.20;;
4452;SDS011;2239;48.152;11.584;2023-11-22T14:17:24;4.80;;;2.40;;
4452;SDS011;2239;48.152;11.584;2023-11-22T14:19:50;3.67;;;2.10;;
4452;SDS011;2239;48.152;11.584;2023-11-22T14:22:16;7.53;;;2.88;;
4452;SDS011;2239;48.152;11.584;2023-11-22T14:24:42;6.60;;;2.60;;
4452;SDS011;2239;48.152;11.584;2023-11-22T14:27:10;4.50;;;2.45;;
4452;SDS011;2239;48.152;11.584;2023-11-22T14:29:37;5.38;;;2.55;;
4452;SDS011;2239;48.152;11.584;2023-11-22T14:32:03;6.75;;;2.70;;
4452;SDS011;2239;48.152;11.584;2023-11-22T14:34:29;3.45;;;2.08;;
4452;SDS011;2239;48.152;11.584;2023-11-22T14:36:54;2.73;;;1.60;;
4452;SDS011;2239;48.152;11.584;2023-11-22T14:39:20;4.20;;;2.20;;
4452;SDS011;2239;48.152;11.584;2023-11-22T14:41:45;5.20;;;1.97;;
4452;SDS011;2239;48.152;11.584;2023-11-22T14:44:11;5.67;;;2.30;;
4452;SDS011;2239;48.152;11.584;2023-11-22T14:46:37;5.75;;;2.33;;
4452;SDS011;2239;48.152;11.584;2023-11-22T14:49:03;5.00;;;2.40;;
4452;SDS011;2239;48.152;11.584;2023-11-22T14:51:29;4.85;;;2.33;;
4452;SDS011;2239;48.152;11.584;2023-11-22T14:53:55;3.70;;;2.37;;
4452;SDS011;2239;48.152;11.584;2023-11-22T14:56:20;6.80;;;2.50;;
4452;SDS011;2239;48.152;11.584;2023-11-22T14:58:47;3.58;;;1.90;;
4452;SDS011;2239;48.152;11.584;2023-11-22T15:01:18;4.15;;;2.30;;
4452;SDS011;2239;48.152;11.584;2023-11-22T15:03:48;6.90;;;2.00;;